createdAt,value
2022-11-23T00:01:21.498Z,78.54
2022-11-23T00:06:27.629Z,79.03
2022-11-23T00:11:35.879Z,78.81
2022-11-23T00:16:41.439Z,78.81
2022-11-23T00:21:46.916Z,78.82
2022-11-23T00:26:52.316Z,79.10
2022-11-23T00:31:57.764Z,78.49
2022-11-23T00:37:03.215Z,78.65
2022-11-23T00:42:08.836Z,78.90
2022-11-23T00:47:14.302Z,79.19
2022-11-23T00:52:19.891Z,79.00
2022-11-23T00:57:25.320Z,78.98
2022-11-23T01:02:31.761Z,79.14
2022-11-23T01:07:37.961Z,78.87
2022-11-23T01:12:43.365Z,78.77
2022-11-23T01:17:48.757Z,78.78
2022-11-23T01:22:54.310Z,79.15
2022-11-23T01:27:59.717Z,79.34
2022-11-23T01:33:05.836Z,79.15
2022-11-23T01:38:16.659Z,79.35
2022-11-23T01:43:20.288Z,79.24
2022-11-23T01:48:31.338Z,79.21
2022-11-23T01:53:39.327Z,79.41
2022-11-23T01:58:48.033Z,79.58
2022-11-23T02:03:55.192Z,79.64
2022-11-23T02:09:01.019Z,79.64
2022-11-23T02:14:06.611Z,79.49
2022-11-23T02:19:39.337Z,79.10
2022-11-23T02:24:47.850Z,79.33
2022-11-23T02:29:55.337Z,79.02
2022-11-23T02:35:00.797Z,79.11
2022-11-23T02:40:09.346Z,79.06
2022-11-23T02:45:37.462Z,78.60
2022-11-23T02:50:43.689Z,78.60
2022-11-23T02:55:49.139Z,78.72
2022-11-23T03:00:55.548Z,78.77
2022-11-23T03:06:00.964Z,78.77
2022-11-23T03:11:06.757Z,78.84
2022-11-23T03:16:13.025Z,78.80
2022-11-23T03:21:19.227Z,78.80
2022-11-23T03:26:25.345Z,78.68
2022-11-23T03:31:32.488Z,78.83
2022-11-23T03:36:38.445Z,78.86
2022-11-23T03:41:43.833Z,78.83
2022-11-23T03:46:50.724Z,78.83
2022-11-23T03:51:56.186Z,78.18
2022-11-23T03:57:01.742Z,78.15
2022-11-23T04:02:08.238Z,78.24
2022-11-23T04:07:15.457Z,78.07
2022-11-23T04:12:22.814Z,77.66
2022-11-23T04:17:28.271Z,77.86
2022-11-23T04:22:34.366Z,77.86
2022-11-23T04:27:40.132Z,77.77
2022-11-23T04:32:47.208Z,77.68
2022-11-23T04:37:52.856Z,77.67
2022-11-23T04:43:01.753Z,77.50
2022-11-23T04:48:09.328Z,77.73
2022-11-23T04:53:15.620Z,77.60
2022-11-23T04:58:22.721Z,78.15
2022-11-23T05:03:31.167Z,77.85
2022-11-23T05:08:39.085Z,77.52
2022-11-23T05:13:52.829Z,77.60
2022-11-23T05:18:59.722Z,77.51
2022-11-23T05:24:06.205Z,77.60
2022-11-23T05:29:11.925Z,77.32
2022-11-23T05:34:17.560Z,77.99
2022-11-23T05:39:23.826Z,78.12
2022-11-23T05:44:30.386Z,78.12
2022-11-23T05:49:36.516Z,77.67
2022-11-23T05:54:42.478Z,78.15
2022-11-23T05:59:50.065Z,77.60
2022-11-23T06:04:57.135Z,77.67
2022-11-23T06:10:06.037Z,77.68
2022-11-23T06:15:13.032Z,78.03
2022-11-23T06:20:18.863Z,78.27
2022-11-23T06:25:26.074Z,77.93
2022-11-23T06:30:38.942Z,78.55
2022-11-23T06:35:46.514Z,78.37
2022-11-23T06:40:52.343Z,77.92
2022-11-23T06:45:58.555Z,77.92
2022-11-23T06:51:06.069Z,77.99
2022-11-23T06:56:13.163Z,77.99
2022-11-23T07:01:18.775Z,78.42
2022-11-23T07:06:25.962Z,78.08
2022-11-23T07:11:33.076Z,78.12
2022-11-23T07:16:38.810Z,78.48
2022-11-23T07:21:45.741Z,78.53
2022-11-23T07:26:52.151Z,78.75
2022-11-23T07:31:57.860Z,79.24
2022-11-23T07:37:04.734Z,79.22
2022-11-23T07:42:31.770Z,79.05
2022-11-23T07:47:18.284Z,79.05
2022-11-23T07:52:23.891Z,78.96
2022-11-23T07:57:29.854Z,81.70
2022-11-23T08:02:35.346Z,79.23
2022-11-23T08:07:40.912Z,79.06
2022-11-23T08:12:46.465Z,78.36
2022-11-23T08:17:58.495Z,78.45
2022-11-23T08:23:03.908Z,78.45
2022-11-23T08:28:09.546Z,79.01
2022-11-23T08:33:15.950Z,78.32
2022-11-23T08:38:21.351Z,78.32
2022-11-23T08:43:27.078Z,78.86
2022-11-23T08:48:32.566Z,78.23
2022-11-23T08:53:38.378Z,77.68
2022-11-23T08:58:43.893Z,77.70
2022-11-23T09:03:49.295Z,77.15
2022-11-23T09:08:54.748Z,77.49
2022-11-23T09:14:00.466Z,76.99
2022-11-23T09:19:07.413Z,77.41
2022-11-23T09:24:13.706Z,77.58
2022-11-23T09:29:19.125Z,77.07
2022-11-23T09:34:27.021Z,76.93
2022-11-23T09:39:32.447Z,77.01
2022-11-23T09:44:51.190Z,77.01
2022-11-23T09:50:11.587Z,76.99
2022-11-23T09:55:44.176Z,76.76
2022-11-23T10:00:52.599Z,76.52
2022-11-23T10:06:09.944Z,76.84
2022-11-23T10:11:40.751Z,76.77
2022-11-23T10:16:49.221Z,77.21
2022-11-23T10:22:15.555Z,76.94
2022-11-23T10:27:24.014Z,76.15
2022-11-23T10:32:38.436Z,76.15
2022-11-23T10:37:44.273Z,76.65
2022-11-23T10:42:58.677Z,77.06
2022-11-23T10:48:04.157Z,76.67
2022-11-23T10:53:22.440Z,76.09
2022-11-23T10:58:31.481Z,75.63
2022-11-23T11:03:36.879Z,75.36
2022-11-23T11:08:54.653Z,75.29
2022-11-23T11:14:09.196Z,75.56
2022-11-23T11:19:32.181Z,75.02
2022-11-23T11:24:47.722Z,75.08
2022-11-23T11:30:00.032Z,74.60
2022-11-23T11:35:29.817Z,75.35
2022-11-23T11:40:47.340Z,74.63
2022-11-23T11:46:27.378Z,73.90
2022-11-23T11:51:30.667Z,73.84
2022-11-23T11:56:47.276Z,74.14
2022-11-23T12:01:55.926Z,73.76
2022-11-23T12:07:07.033Z,73.17
2022-11-23T12:12:15.934Z,73.14
2022-11-23T12:17:33.853Z,72.53
2022-11-23T12:23:00.658Z,71.89
2022-11-23T12:28:25.394Z,72.67
2022-11-23T12:33:45.772Z,71.84
2022-11-23T12:39:02.810Z,71.68
2022-11-23T12:44:26.573Z,72.35
2022-11-23T12:49:46.933Z,71.69
2022-11-23T12:55:15.091Z,71.91
2022-11-23T13:00:24.243Z,72.12
2022-11-23T13:05:58.322Z,72.72
2022-11-23T13:11:18.669Z,72.90
2022-11-23T13:16:27.240Z,72.78
2022-11-23T13:21:45.060Z,72.71
2022-11-23T13:27:10.105Z,73.13
2022-11-23T13:32:43.181Z,73.64
2022-11-23T13:38:00.929Z,73.37
2022-11-23T13:43:31.393Z,73.51
2022-11-23T13:48:57.172Z,73.72
2022-11-23T13:54:04.445Z,73.88
2022-11-23T13:59:25.433Z,73.71
2022-11-23T14:04:34.082Z,73.31
2022-11-23T14:10:05.315Z,73.31
2022-11-23T14:15:25.756Z,73.68
2022-11-23T14:21:01.886Z,73.89
2022-11-23T14:26:35.982Z,74.44
2022-11-23T14:31:59.680Z,74.32
2022-11-23T14:37:31.203Z,74.13
2022-11-23T14:42:39.641Z,73.92
2022-11-23T14:47:45.027Z,73.83
2022-11-23T14:52:52.575Z,74.02
2022-11-23T14:58:03.593Z,74.21
2022-11-23T15:03:49.249Z,74.67
2022-11-23T15:08:33.687Z,74.49
2022-11-23T15:13:48.070Z,74.09
2022-11-23T15:18:53.469Z,74.03
2022-11-23T15:24:00.542Z,74.18
2022-11-23T15:29:06.062Z,74.72
2022-11-23T15:34:17.484Z,74.12
2022-11-23T15:39:24.506Z,74.10
2022-11-23T15:44:33.447Z,74.09
2022-11-23T15:49:40.508Z,74.20
2022-11-23T15:54:46.850Z,74.50
2022-11-23T15:59:58.103Z,74.65
2022-11-23T16:05:25.475Z,74.64
2022-11-23T16:10:35.093Z,74.95
2022-11-23T16:15:43.699Z,75.27
2022-11-23T16:20:54.794Z,75.16
2022-11-23T16:26:06.201Z,75.35
2022-11-23T16:31:20.369Z,75.65
2022-11-23T16:36:30.180Z,75.43
2022-11-23T16:41:36.500Z,75.66
2022-11-23T16:46:43.942Z,75.66
2022-11-23T16:51:57.166Z,75.62
2022-11-23T16:57:02.090Z,75.63
2022-11-23T17:02:10.564Z,75.71
2022-11-23T17:07:17.066Z,75.75
2022-11-23T17:12:22.706Z,75.72
2022-11-23T17:17:30.043Z,75.66
2022-11-23T17:22:35.431Z,75.95
2022-11-23T17:27:43.912Z,75.73
2022-11-23T17:32:50.228Z,76.12
2022-11-23T17:37:56.043Z,75.97
2022-11-23T17:43:01.518Z,76.14
2022-11-23T17:48:07.240Z,75.91
2022-11-23T17:53:12.650Z,75.95
2022-11-23T17:58:18.133Z,76.07
2022-11-23T18:03:23.680Z,76.39
2022-11-23T18:08:29.053Z,75.81
2022-11-23T18:13:34.474Z,76.00
2022-11-23T18:18:40.505Z,76.15
2022-11-23T18:23:46.362Z,76.02
2022-11-23T18:28:52.492Z,76.02
2022-11-23T18:33:57.891Z,76.15
2022-11-23T18:39:03.685Z,76.23
2022-11-23T18:44:09.093Z,76.28
2022-11-23T18:49:14.513Z,76.54
2022-11-23T18:54:19.973Z,76.81
2022-11-23T18:59:56.207Z,76.93
2022-11-23T19:04:34.424Z,77.06
2022-11-23T19:09:39.901Z,76.96
2022-11-23T19:14:46.947Z,76.85
2022-11-23T19:19:52.358Z,76.85
2022-11-23T19:24:57.968Z,77.01
2022-11-23T19:30:09.249Z,77.07
2022-11-23T19:35:15.239Z,77.15
2022-11-23T19:40:20.728Z,77.31
2022-11-23T19:45:26.131Z,77.55
2022-11-23T19:50:31.542Z,77.85
2022-11-23T19:55:37.731Z,78.08
2022-11-23T20:00:47.203Z,78.08
2022-11-23T20:06:00.273Z,77.48
2022-11-23T20:11:13.916Z,77.72
2022-11-23T20:16:21.341Z,77.67
2022-11-23T20:21:28.279Z,77.93
2022-11-23T20:26:36.221Z,77.93
2022-11-23T20:31:41.944Z,77.86
2022-11-23T20:36:47.593Z,78.61
2022-11-23T20:41:53.172Z,78.40
2022-11-23T20:47:02.948Z,78.13
2022-11-23T20:52:06.239Z,78.13
2022-11-23T20:57:11.694Z,78.04
2022-11-23T21:02:17.493Z,77.99
2022-11-23T21:07:23.231Z,78.02
2022-11-23T21:12:50.474Z,77.80
2022-11-23T21:17:54.193Z,77.71
2022-11-23T21:22:59.606Z,77.98
2022-11-23T21:28:05.202Z,77.97
2022-11-23T21:33:11.314Z,77.99
2022-11-23T21:38:16.732Z,78.29
2022-11-23T21:43:22.150Z,78.38
2022-11-23T21:48:28.021Z,78.27
2022-11-23T21:53:34.555Z,78.25
2022-11-23T21:58:41.238Z,77.75
2022-11-23T22:03:52.966Z,77.96
2022-11-23T22:09:01.364Z,77.83
2022-11-23T22:14:12.470Z,78.19
2022-11-23T22:19:19.100Z,78.19
2022-11-23T22:24:24.702Z,78.20
2022-11-23T22:29:30.239Z,77.83
2022-11-23T22:34:36.066Z,78.32
2022-11-23T22:39:41.744Z,78.03
2022-11-23T22:44:47.200Z,78.32
2022-11-23T22:49:52.735Z,78.39
2022-11-23T22:54:58.187Z,77.85
2022-11-23T23:00:03.708Z,77.90
2022-11-23T23:05:09.877Z,78.17
2022-11-23T23:10:15.411Z,77.90
2022-11-23T23:15:21.366Z,77.88
2022-11-23T23:20:26.904Z,77.40
2022-11-23T23:25:33.281Z,77.05
2022-11-23T23:30:38.757Z,76.91
2022-11-23T23:35:44.843Z,77.12
2022-11-23T23:40:50.311Z,76.31
2022-11-23T23:46:01.361Z,76.47
2022-11-23T23:51:08.837Z,76.29
2022-11-23T23:56:17.447Z,76.14
